sensor_id;sensor_type;location;lat;lon;timestamp;P1;durP1;ratioP1;P2;durP2;ratioP2
57325;SDS011;43161;50.950;18.224;2022-11-25T00:01:39;135.40;;;39.70;;
57325;SDS011;43161;50.950;18.224;2022-11-25T00:04:04;135.60;;;42.20;;
57325;SDS011;43161;50.950;18.224;2022-11-25T00:06:32;136.60;;;41.50;;
57325;SDS011;43161;50.950;18.224;2022-11-25T00:11:35;132.20;;;41.30;;
57325;SDS011;43161;50.950;18.224;2022-11-25T00:14:02;129.90;;;42.90;;
57325;SDS011;43161;50.950;18.224;2022-11-25T00:16:28;147.50;;;43.30;;
57325;SDS011;43161;50.950;18.224;2022-11-25T00:18:54;129.90;;;41.50;;
57325;SDS011;43161;50.950;18.224;2022-11-25T00:21:21;128.60;;;39.70;;
57325;SDS011;43161;50.950;18.224;2022-11-25T00:23:51;126.80;;;41.60;;
57325;SDS011;43161;50.950;18.224;2022-11-25T00:26:21;131.90;;;41.70;;
57325;SDS011;43161;50.950;18.224;2022-11-25T00:28:48;135.40;;;43.20;;
57325;SDS011;43161;50.950;18.224;2022-11-25T00:31:15;140.40;;;43.90;;
57325;SDS011;43161;50.950;18.224;2022-11-25T00:33:43;137.10;;;43.00;;
57325;SDS011;43161;50.950;18.224;2022-11-25T00:38:55;134.30;;;38.80;;
57325;SDS011;43161;50.950;18.224;2022-11-25T00:41:22;124.70;;;41.30;;
57325;SDS011;43161;50.950;18.224;2022-11-25T00:44:10;120.50;;;39.90;;
57325;SDS011;43161;50.950;18.224;2022-11-25T00:46:56;127.00;;;39.90;;
57325;SDS011;43161;50.950;18.224;2022-11-25T00:49:22;127.10;;;40.80;;
57325;SDS011;43161;50.950;18.224;2022-11-25T00:51:48;129.30;;;40.20;;
57325;SDS011;43161;50.950;18.224;2022-11-25T00:54:13;129.60;;;40.60;;
57325;SDS011;43161;50.950;18.224;2022-11-25T00:56:39;122.40;;;39.50;;
57325;SDS011;43161;50.950;18.224;2022-11-25T00:59:05;126.40;;;39.80;;
57325;SDS011;43161;50.950;18.224;2022-11-25T01:01:31;128.60;;;43.30;;
57325;SDS011;43161;50.950;18.224;2022-11-25T01:03:57;128.50;;;43.20;;
57325;SDS011;43161;50.950;18.224;2022-11-25T01:06:22;125.30;;;42.80;;
57325;SDS011;43161;50.950;18.224;2022-11-25T01:08:48;122.00;;;40.80;;
57325;SDS011;43161;50.950;18.224;2022-11-25T01:11:15;131.00;;;42.90;;
57325;SDS011;43161;50.950;18.224;2022-11-25T01:13:43;122.00;;;41.60;;
57325;SDS011;43161;50.950;18.224;2022-11-25T01:16:10;132.40;;;43.30;;
57325;SDS011;43161;50.950;18.224;2022-11-25T01:18:37;128.10;;;42.40;;
57325;SDS011;43161;50.950;18.224;2022-11-25T01:21:06;133.40;;;44.20;;
57325;SDS011;43161;50.950;18.224;2022-11-25T01:23:33;130.70;;;43.80;;
57325;SDS011;43161;50.950;18.224;2022-11-25T01:26:06;125.40;;;42.30;;
57325;SDS011;43161;50.950;18.224;2022-11-25T01:28:33;132.80;;;42.60;;
57325;SDS011;43161;50.950;18.224;2022-11-25T01:31:02;143.20;;;46.60;;
57325;SDS011;43161;50.950;18.224;2022-11-25T01:33:29;135.10;;;43.50;;
57325;SDS011;43161;50.950;18.224;2022-11-25T01:36:00;131.60;;;42.50;;
57325;SDS011;43161;50.950;18.224;2022-11-25T01:38:27;131.90;;;43.50;;
57325;SDS011;43161;50.950;18.224;2022-11-25T01:40:54;135.10;;;44.80;;
57325;SDS011;43161;50.950;18.224;2022-11-25T01:43:19;143.40;;;47.80;;
57325;SDS011;43161;50.950;18.224;2022-11-25T01:45:45;142.10;;;46.00;;
57325;SDS011;43161;50.950;18.224;2022-11-25T01:48:12;136.30;;;43.30;;
57325;SDS011;43161;50.950;18.224;2022-11-25T01:50:41;142.40;;;46.70;;
57325;SDS011;43161;50.950;18.224;2022-11-25T01:53:06;136.40;;;43.40;;
57325;SDS011;43161;50.950;18.224;2022-11-25T01:55:35;153.10;;;50.10;;
57325;SDS011;43161;50.950;18.224;2022-11-25T01:58:08;140.50;;;45.20;;
57325;SDS011;43161;50.950;18.224;2022-11-25T02:00:36;149.90;;;50.00;;
57325;SDS011;43161;50.950;18.224;2022-11-25T02:03:02;141.00;;;47.60;;
57325;SDS011;43161;50.950;18.224;2022-11-25T02:05:37;149.70;;;51.20;;
57325;SDS011;43161;50.950;18.224;2022-11-25T02:08:06;137.00;;;46.00;;
57325;SDS011;43161;50.950;18.224;2022-11-25T02:10:33;139.90;;;45.90;;
57325;SDS011;43161;50.950;18.224;2022-11-25T02:12:59;140.10;;;48.70;;
57325;SDS011;43161;50.950;18.224;2022-11-25T02:15:24;139.50;;;48.80;;
57325;SDS011;43161;50.950;18.224;2022-11-25T02:17:50;132.10;;;44.00;;
57325;SDS011;43161;50.950;18.224;2022-11-25T02:20:17;130.20;;;45.10;;
57325;SDS011;43161;50.950;18.224;2022-11-25T02:25:30;130.30;;;47.80;;
57325;SDS011;43161;50.950;18.224;2022-11-25T02:28:05;143.90;;;50.40;;
57325;SDS011;43161;50.950;18.224;2022-11-25T02:30:34;137.90;;;46.10;;
57325;SDS011;43161;50.950;18.224;2022-11-25T02:33:00;147.30;;;47.10;;
57325;SDS011;43161;50.950;18.224;2022-11-25T02:35:27;133.10;;;43.80;;
57325;SDS011;43161;50.950;18.224;2022-11-25T02:38:17;129.40;;;44.30;;
57325;SDS011;43161;50.950;18.224;2022-11-25T02:40:50;129.90;;;42.00;;
57325;SDS011;43161;50.950;18.224;2022-11-25T02:43:18;121.20;;;44.40;;
57325;SDS011;43161;50.950;18.224;2022-11-25T02:48:31;136.40;;;50.10;;
57325;SDS011;43161;50.950;18.224;2022-11-25T02:50:58;125.00;;;41.60;;
57325;SDS011;43161;50.950;18.224;2022-11-25T02:53:24;117.00;;;40.30;;
57325;SDS011;43161;50.950;18.224;2022-11-25T02:55:50;125.40;;;40.60;;
57325;SDS011;43161;50.950;18.224;2022-11-25T02:58:15;132.80;;;46.40;;
57325;SDS011;43161;50.950;18.224;2022-11-25T03:00:41;144.40;;;50.20;;
57325;SDS011;43161;50.950;18.224;2022-11-25T03:03:07;148.60;;;56.20;;
57325;SDS011;43161;50.950;18.224;2022-11-25T03:05:33;150.40;;;51.60;;
57325;SDS011;43161;50.950;18.224;2022-11-25T03:07:59;124.90;;;41.10;;
57325;SDS011;43161;50.950;18.224;2022-11-25T03:10:24;153.20;;;53.20;;
57325;SDS011;43161;50.950;18.224;2022-11-25T03:12:50;122.30;;;43.00;;
57325;SDS011;43161;50.950;18.224;2022-11-25T03:15:16;125.90;;;43.50;;
57325;SDS011;43161;50.950;18.224;2022-11-25T03:17:43;144.60;;;50.70;;
57325;SDS011;43161;50.950;18.224;2022-11-25T03:20:09;126.80;;;45.10;;
57325;SDS011;43161;50.950;18.224;2022-11-25T03:22:36;141.00;;;49.00;;
57325;SDS011;43161;50.950;18.224;2022-11-25T03:25:03;114.80;;;41.90;;
57325;SDS011;43161;50.950;18.224;2022-11-25T03:27:29;123.80;;;42.80;;
57325;SDS011;43161;50.950;18.224;2022-11-25T03:29:55;123.30;;;44.20;;
57325;SDS011;43161;50.950;18.224;2022-11-25T03:32:21;123.90;;;42.60;;
57325;SDS011;43161;50.950;18.224;2022-11-25T03:34:46;129.60;;;49.00;;
57325;SDS011;43161;50.950;18.224;2022-11-25T03:37:11;128.50;;;42.80;;
57325;SDS011;43161;50.950;18.224;2022-11-25T03:39:37;121.90;;;38.70;;
57325;SDS011;43161;50.950;18.224;2022-11-25T03:42:03;123.70;;;40.00;;
57325;SDS011;43161;50.950;18.224;2022-11-25T03:44:28;131.20;;;42.30;;
57325;SDS011;43161;50.950;18.224;2022-11-25T03:46:54;120.30;;;40.60;;
57325;SDS011;43161;50.950;18.224;2022-11-25T03:49:19;128.00;;;43.50;;
57325;SDS011;43161;50.950;18.224;2022-11-25T03:51:46;152.90;;;53.20;;
57325;SDS011;43161;50.950;18.224;2022-11-25T03:54:12;135.60;;;45.50;;
57325;SDS011;43161;50.950;18.224;2022-11-25T03:56:37;121.20;;;39.90;;
57325;SDS011;43161;50.950;18.224;2022-11-25T03:59:03;113.70;;;38.90;;
57325;SDS011;43161;50.950;18.224;2022-11-25T04:01:28;128.00;;;40.50;;
57325;SDS011;43161;50.950;18.224;2022-11-25T04:03:54;133.50;;;40.60;;
57325;SDS011;43161;50.950;18.224;2022-11-25T04:06:19;122.90;;;40.30;;
57325;SDS011;43161;50.950;18.224;2022-11-25T04:08:46;117.80;;;39.20;;
57325;SDS011;43161;50.950;18.224;2022-11-25T04:11:11;119.60;;;40.70;;
57325;SDS011;43161;50.950;18.224;2022-11-25T04:13:37;120.10;;;41.70;;
57325;SDS011;43161;50.950;18.224;2022-11-25T04:16:02;153.70;;;49.20;;
57325;SDS011;43161;50.950;18.224;2022-11-25T04:18:28;166.30;;;52.10;;
57325;SDS011;43161;50.950;18.224;2022-11-25T04:20:54;158.30;;;49.10;;
57325;SDS011;43161;50.950;18.224;2022-11-25T04:23:19;149.50;;;47.20;;
57325;SDS011;43161;50.950;18.224;2022-11-25T04:25:48;140.60;;;46.30;;
57325;SDS011;43161;50.950;18.224;2022-11-25T04:28:14;112.60;;;42.20;;
57325;SDS011;43161;50.950;18.224;2022-11-25T04:30:40;122.90;;;43.40;;
57325;SDS011;43161;50.950;18.224;2022-11-25T04:33:05;122.50;;;45.20;;
57325;SDS011;43161;50.950;18.224;2022-11-25T04:35:31;135.60;;;45.00;;
57325;SDS011;43161;50.950;18.224;2022-11-25T04:37:56;115.40;;;40.40;;
57325;SDS011;43161;50.950;18.224;2022-11-25T04:40:22;122.70;;;42.40;;
57325;SDS011;43161;50.950;18.224;2022-11-25T04:42:47;127.00;;;44.90;;
57325;SDS011;43161;50.950;18.224;2022-11-25T04:45:14;113.80;;;42.50;;
57325;SDS011;43161;50.950;18.224;2022-11-25T04:47:41;116.50;;;40.80;;
57325;SDS011;43161;50.950;18.224;2022-11-25T04:50:09;101.10;;;38.00;;
57325;SDS011;43161;50.950;18.224;2022-11-25T04:52:38;115.80;;;40.10;;
57325;SDS011;43161;50.950;18.224;2022-11-25T04:55:04;108.90;;;40.40;;
57325;SDS011;43161;50.950;18.224;2022-11-25T04:57:30;118.90;;;41.00;;
57325;SDS011;43161;50.950;18.224;2022-11-25T04:59:55;113.60;;;39.90;;
57325;SDS011;43161;50.950;18.224;2022-11-25T05:02:22;127.00;;;45.30;;
57325;SDS011;43161;50.950;18.224;2022-11-25T05:04:53;124.60;;;43.30;;
57325;SDS011;43161;50.950;18.224;2022-11-25T05:07:21;143.80;;;50.10;;
57325;SDS011;43161;50.950;18.224;2022-11-25T05:09:47;142.00;;;46.60;;
57325;SDS011;43161;50.950;18.224;2022-11-25T05:12:14;137.30;;;48.60;;
57325;SDS011;43161;50.950;18.224;2022-11-25T05:14:42;153.20;;;55.70;;
57325;SDS011;43161;50.950;18.224;2022-11-25T05:17:12;160.20;;;48.70;;
57325;SDS011;43161;50.950;18.224;2022-11-25T05:19:39;132.40;;;46.30;;
57325;SDS011;43161;50.950;18.224;2022-11-25T05:22:05;114.10;;;40.50;;
57325;SDS011;43161;50.950;18.224;2022-11-25T05:24:34;120.40;;;42.90;;
57325;SDS011;43161;50.950;18.224;2022-11-25T05:27:01;134.80;;;50.00;;
57325;SDS011;43161;50.950;18.224;2022-11-25T05:29:26;155.40;;;51.10;;
57325;SDS011;43161;50.950;18.224;2022-11-25T05:31:52;156.10;;;54.30;;
57325;SDS011;43161;50.950;18.224;2022-11-25T05:34:18;142.10;;;47.20;;
57325;SDS011;43161;50.950;18.224;2022-11-25T05:36:43;137.30;;;45.10;;
57325;SDS011;43161;50.950;18.224;2022-11-25T05:39:09;149.30;;;48.20;;
57325;SDS011;43161;50.950;18.224;2022-11-25T05:41:34;148.50;;;45.40;;
57325;SDS011;43161;50.950;18.224;2022-11-25T05:44:00;161.30;;;49.10;;
57325;SDS011;43161;50.950;18.224;2022-11-25T05:46:25;175.90;;;55.20;;
57325;SDS011;43161;50.950;18.224;2022-11-25T05:48:51;165.30;;;51.10;;
57325;SDS011;43161;50.950;18.224;2022-11-25T05:51:18;150.40;;;49.70;;
57325;SDS011;43161;50.950;18.224;2022-11-25T05:53:44;289.10;;;75.20;;
57325;SDS011;43161;50.950;18.224;2022-11-25T05:56:10;269.80;;;67.10;;
57325;SDS011;43161;50.950;18.224;2022-11-25T05:58:35;170.10;;;46.00;;
57325;SDS011;43161;50.950;18.224;2022-11-25T06:01:04;239.90;;;65.90;;
57325;SDS011;43161;50.950;18.224;2022-11-25T06:03:32;204.50;;;59.60;;
57325;SDS011;43161;50.950;18.224;2022-11-25T06:05:58;267.40;;;68.20;;
57325;SDS011;43161;50.950;18.224;2022-11-25T06:08:24;175.60;;;47.30;;
57325;SDS011;43161;50.950;18.224;2022-11-25T06:10:51;226.00;;;56.00;;
57325;SDS011;43161;50.950;18.224;2022-11-25T06:13:17;212.50;;;53.80;;
57325;SDS011;43161;50.950;18.224;2022-11-25T06:15:43;199.50;;;49.00;;
57325;SDS011;43161;50.950;18.224;2022-11-25T06:18:10;177.90;;;37.30;;
57325;SDS011;43161;50.950;18.224;2022-11-25T06:20:36;175.20;;;40.30;;
57325;SDS011;43161;50.950;18.224;2022-11-25T06:23:02;191.90;;;43.50;;
57325;SDS011;43161;50.950;18.224;2022-11-25T06:25:28;165.20;;;38.70;;
57325;SDS011;43161;50.950;18.224;2022-11-25T06:27:54;145.10;;;42.50;;
57325;SDS011;43161;50.950;18.224;2022-11-25T06:30:20;175.50;;;55.90;;
57325;SDS011;43161;50.950;18.224;2022-11-25T06:32:45;150.60;;;42.70;;
57325;SDS011;43161;50.950;18.224;2022-11-25T06:35:11;178.40;;;44.90;;
57325;SDS011;43161;50.950;18.224;2022-11-25T06:37:37;236.70;;;49.50;;
57325;SDS011;43161;50.950;18.224;2022-11-25T06:40:02;262.80;;;59.30;;
57325;SDS011;43161;50.950;18.224;2022-11-25T06:42:29;316.00;;;59.30;;
57325;SDS011;43161;50.950;18.224;2022-11-25T06:44:54;256.30;;;55.40;;
57325;SDS011;43161;50.950;18.224;2022-11-25T06:47:20;294.50;;;56.10;;
57325;SDS011;43161;50.950;18.224;2022-11-25T06:49:46;273.20;;;54.80;;
57325;SDS011;43161;50.950;18.224;2022-11-25T06:52:11;332.00;;;56.80;;
57325;SDS011;43161;50.950;18.224;2022-11-25T06:54:37;298.90;;;47.50;;
57325;SDS011;43161;50.950;18.224;2022-11-25T06:57:08;305.90;;;63.90;;
57325;SDS011;43161;50.950;18.224;2022-11-25T06:59:35;257.60;;;47.20;;
57325;SDS011;43161;50.950;18.224;2022-11-25T07:02:01;213.70;;;47.70;;
57325;SDS011;43161;50.950;18.224;2022-11-25T07:04:26;209.20;;;42.30;;
57325;SDS011;43161;50.950;18.224;2022-11-25T07:06:52;227.70;;;48.50;;
57325;SDS011;43161;50.950;18.224;2022-11-25T07:09:18;205.10;;;43.50;;
57325;SDS011;43161;50.950;18.224;2022-11-25T07:11:44;233.30;;;41.30;;
57325;SDS011;43161;50.950;18.224;2022-11-25T07:14:11;227.50;;;44.00;;
57325;SDS011;43161;50.950;18.224;2022-11-25T07:16:38;258.20;;;50.00;;
57325;SDS011;43161;50.950;18.224;2022-11-25T07:19:04;245.90;;;45.00;;
57325;SDS011;43161;50.950;18.224;2022-11-25T07:21:31;204.70;;;42.50;;
57325;SDS011;43161;50.950;18.224;2022-11-25T07:23:58;223.10;;;43.40;;
57325;SDS011;43161;50.950;18.224;2022-11-25T07:26:26;209.50;;;42.80;;
57325;SDS011;43161;50.950;18.224;2022-11-25T07:28:53;254.10;;;46.60;;
57325;SDS011;43161;50.950;18.224;2022-11-25T07:33:46;250.00;;;44.20;;
57325;SDS011;43161;50.950;18.224;2022-11-25T07:36:13;270.70;;;46.00;;
57325;SDS011;43161;50.950;18.224;2022-11-25T07:38:39;283.10;;;44.00;;
57325;SDS011;43161;50.950;18.224;2022-11-25T07:41:06;261.40;;;43.70;;
57325;SDS011;43161;50.950;18.224;2022-11-25T07:43:35;327.80;;;49.20;;
57325;SDS011;43161;50.950;18.224;2022-11-25T07:48:45;209.70;;;42.40;;
57325;SDS011;43161;50.950;18.224;2022-11-25T07:53:40;254.40;;;46.40;;
57325;SDS011;43161;50.950;18.224;2022-11-25T07:56:06;242.20;;;40.10;;
57325;SDS011;43161;50.950;18.224;2022-11-25T07:58:32;283.50;;;45.30;;
57325;SDS011;43161;50.950;18.224;2022-11-25T08:01:00;241.10;;;43.40;;
57325;SDS011;43161;50.950;18.224;2022-11-25T08:03:27;252.70;;;44.80;;
57325;SDS011;43161;50.950;18.224;2022-11-25T08:05:52;248.20;;;46.40;;
57325;SDS011;43161;50.950;18.224;2022-11-25T08:08:18;225.90;;;42.30;;
57325;SDS011;43161;50.950;18.224;2022-11-25T08:10:44;280.30;;;43.30;;
57325;SDS011;43161;50.950;18.224;2022-11-25T08:13:09;201.30;;;39.30;;
57325;SDS011;43161;50.950;18.224;2022-11-25T08:15:35;256.70;;;46.60;;
57325;SDS011;43161;50.950;18.224;2022-11-25T08:18:00;241.70;;;45.10;;
57325;SDS011;43161;50.950;18.224;2022-11-25T08:20:26;261.60;;;47.10;;
57325;SDS011;43161;50.950;18.224;2022-11-25T08:22:52;197.40;;;42.90;;
57325;SDS011;43161;50.950;18.224;2022-11-25T08:25:18;227.20;;;43.30;;
57325;SDS011;43161;50.950;18.224;2022-11-25T08:27:44;226.80;;;45.30;;
57325;SDS011;43161;50.950;18.224;2022-11-25T08:30:10;204.60;;;41.10;;
57325;SDS011;43161;50.950;18.224;2022-11-25T08:32:39;220.40;;;56.00;;
57325;SDS011;43161;50.950;18.224;2022-11-25T08:35:05;182.30;;;49.30;;
57325;SDS011;43161;50.950;18.224;2022-11-25T08:37:31;154.00;;;39.20;;
57325;SDS011;43161;50.950;18.224;2022-11-25T08:39:56;182.60;;;45.80;;
57325;SDS011;43161;50.950;18.224;2022-11-25T08:42:22;162.20;;;42.90;;
57325;SDS011;43161;50.950;18.224;2022-11-25T08:44:52;150.50;;;42.10;;
57325;SDS011;43161;50.950;18.224;2022-11-25T08:47:19;153.80;;;43.50;;
57325;SDS011;43161;50.950;18.224;2022-11-25T08:49:49;147.50;;;40.80;;
57325;SDS011;43161;50.950;18.224;2022-11-25T08:52:16;156.50;;;43.20;;
57325;SDS011;43161;50.950;18.224;2022-11-25T08:54:41;145.20;;;41.00;;
57325;SDS011;43161;50.950;18.224;2022-11-25T08:57:07;136.10;;;41.00;;
57325;SDS011;43161;50.950;18.224;2022-11-25T08:59:33;132.20;;;40.50;;
57325;SDS011;43161;50.950;18.224;2022-11-25T09:01:59;132.00;;;41.40;;
57325;SDS011;43161;50.950;18.224;2022-11-25T09:04:24;137.20;;;42.30;;
57325;SDS011;43161;50.950;18.224;2022-11-25T09:06:50;121.70;;;39.50;;
57325;SDS011;43161;50.950;18.224;2022-11-25T09:09:16;111.60;;;38.10;;
57325;SDS011;43161;50.950;18.224;2022-11-25T09:11:41;113.00;;;37.50;;
57325;SDS011;43161;50.950;18.224;2022-11-25T09:14:07;117.20;;;39.80;;
57325;SDS011;43161;50.950;18.224;2022-11-25T09:16:33;112.20;;;38.00;;
57325;SDS011;43161;50.950;18.224;2022-11-25T09:18:59;126.90;;;44.90;;
57325;SDS011;43161;50.950;18.224;2022-11-25T09:21:24;121.80;;;39.90;;
57325;SDS011;43161;50.950;18.224;2022-11-25T09:23:51;105.80;;;38.40;;
57325;SDS011;43161;50.950;18.224;2022-11-25T09:26:19;102.90;;;38.40;;
57325;SDS011;43161;50.950;18.224;2022-11-25T09:28:50;103.00;;;36.90;;
57325;SDS011;43161;50.950;18.224;2022-11-25T09:31:17;97.20;;;37.60;;
57325;SDS011;43161;50.950;18.224;2022-11-25T09:33:43;96.80;;;35.40;;
57325;SDS011;43161;50.950;18.224;2022-11-25T09:36:10;95.80;;;36.70;;
57325;SDS011;43161;50.950;18.224;2022-11-25T09:38:37;87.90;;;36.70;;
57325;SDS011;43161;50.950;18.224;2022-11-25T09:41:04;87.10;;;35.30;;
57325;SDS011;43161;50.950;18.224;2022-11-25T09:55:14;87.50;;;33.00;;
57325;SDS011;43161;50.950;18.224;2022-11-25T10:06:06;75.10;;;31.50;;
57325;SDS011;43161;50.950;18.224;2022-11-25T10:08:43;65.20;;;26.80;;
57325;SDS011;43161;50.950;18.224;2022-11-25T10:14:21;74.90;;;31.80;;
57325;SDS011;43161;50.950;18.224;2022-11-25T10:16:51;89.40;;;39.10;;
57325;SDS011;43161;50.950;18.224;2022-11-25T10:24:56;69.30;;;31.30;;
57325;SDS011;43161;50.950;18.224;2022-11-25T10:27:24;75.10;;;33.40;;
57325;SDS011;43161;50.950;18.224;2022-11-25T10:30:02;94.60;;;38.50;;
57325;SDS011;43161;50.950;18.224;2022-11-25T10:35:27;72.20;;;31.00;;
57325;SDS011;43161;50.950;18.224;2022-11-25T10:37:56;78.60;;;30.40;;
57325;SDS011;43161;50.950;18.224;2022-11-25T10:40:24;83.60;;;31.90;;
57325;SDS011;43161;50.950;18.224;2022-11-25T10:42:50;79.50;;;31.60;;
57325;SDS011;43161;50.950;18.224;2022-11-25T10:45:16;81.40;;;31.60;;
57325;SDS011;43161;50.950;18.224;2022-11-25T10:50:36;73.10;;;28.40;;
57325;SDS011;43161;50.950;18.224;2022-11-25T10:55:32;71.40;;;30.80;;
57325;SDS011;43161;50.950;18.224;2022-11-25T10:58:01;66.70;;;27.70;;
57325;SDS011;43161;50.950;18.224;2022-11-25T11:00:46;71.10;;;29.20;;
57325;SDS011;43161;50.950;18.224;2022-11-25T11:03:13;73.70;;;28.70;;
57325;SDS011;43161;50.950;18.224;2022-11-25T11:05:45;73.50;;;30.80;;
57325;SDS011;43161;50.950;18.224;2022-11-25T11:10:37;69.30;;;31.30;;
57325;SDS011;43161;50.950;18.224;2022-11-25T11:13:04;75.70;;;32.20;;
57325;SDS011;43161;50.950;18.224;2022-11-25T11:20:50;81.80;;;34.30;;
57325;SDS011;43161;50.950;18.224;2022-11-25T11:23:18;79.10;;;30.20;;
57325;SDS011;43161;50.950;18.224;2022-11-25T11:52:51;75.70;;;29.80;;
57325;SDS011;43161;50.950;18.224;2022-11-25T11:58:28;72.40;;;28.80;;
57325;SDS011;43161;50.950;18.224;2022-11-25T12:04:06;79.60;;;28.90;;
57325;SDS011;43161;50.950;18.224;2022-11-25T12:07:02;79.40;;;29.40;;
57325;SDS011;43161;50.950;18.224;2022-11-25T12:09:33;81.70;;;31.80;;
57325;SDS011;43161;50.950;18.224;2022-11-25T12:12:03;79.70;;;32.60;;
57325;SDS011;43161;50.950;18.224;2022-11-25T12:17:00;68.50;;;26.90;;
57325;SDS011;43161;50.950;18.224;2022-11-25T12:19:29;74.50;;;33.30;;
57325;SDS011;43161;50.950;18.224;2022-11-25T12:22:08;64.70;;;26.40;;
57325;SDS011;43161;50.950;18.224;2022-11-25T12:27:17;68.80;;;30.70;;
57325;SDS011;43161;50.950;18.224;2022-11-25T12:29:47;63.40;;;25.10;;
57325;SDS011;43161;50.950;18.224;2022-11-25T12:34:41;65.50;;;29.50;;
57325;SDS011;43161;50.950;18.224;2022-11-25T12:37:15;73.70;;;33.40;;
57325;SDS011;43161;50.950;18.224;2022-11-25T12:39:52;68.50;;;30.40;;
57325;SDS011;43161;50.950;18.224;2022-11-25T12:42:23;66.40;;;30.60;;
57325;SDS011;43161;50.950;18.224;2022-11-25T12:47:34;71.30;;;33.20;;
57325;SDS011;43161;50.950;18.224;2022-11-25T12:50:00;64.00;;;29.20;;
57325;SDS011;43161;50.950;18.224;2022-11-25T12:55:29;52.50;;;24.40;;
57325;SDS011;43161;50.950;18.224;2022-11-25T13:12:05;56.00;;;24.50;;
57325;SDS011;43161;50.950;18.224;2022-11-25T13:17:38;63.10;;;26.90;;
57325;SDS011;43161;50.950;18.224;2022-11-25T13:25:40;55.10;;;23.90;;
57325;SDS011;43161;50.950;18.224;2022-11-25T13:30:52;58.00;;;23.70;;
57325;SDS011;43161;50.950;18.224;2022-11-25T13:35:53;54.80;;;22.60;;
57325;SDS011;43161;50.950;18.224;2022-11-25T13:41:33;49.60;;;22.40;;
57325;SDS011;43161;50.950;18.224;2022-11-25T13:46:46;47.60;;;21.20;;
57325;SDS011;43161;50.950;18.224;2022-11-25T13:52:22;214.80;;;97.30;;
57325;SDS011;43161;50.950;18.224;2022-11-25T14:00:49;91.10;;;38.60;;
57325;SDS011;43161;50.950;18.224;2022-11-25T14:09:08;326.00;;;115.20;;
57325;SDS011;43161;50.950;18.224;2022-11-25T14:28:35;57.90;;;25.60;;
57325;SDS011;43161;50.950;18.224;2022-11-25T14:31:09;57.30;;;25.80;;
57325;SDS011;43161;50.950;18.224;2022-11-25T14:33:45;59.60;;;25.70;;
57325;SDS011;43161;50.950;18.224;2022-11-25T14:36:25;57.70;;;24.70;;
57325;SDS011;43161;50.950;18.224;2022-11-25T14:38:55;65.20;;;25.30;;
57325;SDS011;43161;50.950;18.224;2022-11-25T14:41:29;65.70;;;26.70;;
57325;SDS011;43161;50.950;18.224;2022-11-25T14:44:05;65.30;;;28.40;;
57325;SDS011;43161;50.950;18.224;2022-11-25T14:46:48;76.50;;;30.90;;
57325;SDS011;43161;50.950;18.224;2022-11-25T14:49:18;80.30;;;29.90;;
57325;SDS011;43161;50.950;18.224;2022-11-25T14:51:46;106.00;;;44.80;;
57325;SDS011;43161;50.950;18.224;2022-11-25T14:54:14;118.20;;;49.30;;
57325;SDS011;43161;50.950;18.224;2022-11-25T14:56:39;98.40;;;44.40;;
57325;SDS011;43161;50.950;18.224;2022-11-25T14:59:06;94.50;;;44.60;;
57325;SDS011;43161;50.950;18.224;2022-11-25T15:01:33;99.30;;;46.10;;
57325;SDS011;43161;50.950;18.224;2022-11-25T15:04:04;113.50;;;47.60;;
57325;SDS011;43161;50.950;18.224;2022-11-25T15:06:37;97.10;;;43.10;;
57325;SDS011;43161;50.950;18.224;2022-11-25T15:09:16;123.40;;;52.30;;
57325;SDS011;43161;50.950;18.224;2022-11-25T15:11:50;141.30;;;57.00;;
57325;SDS011;43161;50.950;18.224;2022-11-25T15:14:33;139.20;;;61.90;;
57325;SDS011;43161;50.950;18.224;2022-11-25T15:17:05;105.30;;;46.40;;
57325;SDS011;43161;50.950;18.224;2022-11-25T15:19:32;141.50;;;67.90;;
57325;SDS011;43161;50.950;18.224;2022-11-25T15:22:00;156.20;;;73.50;;
57325;SDS011;43161;50.950;18.224;2022-11-25T15:29:51;78.80;;;38.30;;
57325;SDS011;43161;50.950;18.224;2022-11-25T15:32:18;84.50;;;38.40;;
57325;SDS011;43161;50.950;18.224;2022-11-25T15:34:45;78.80;;;32.80;;
57325;SDS011;43161;50.950;18.224;2022-11-25T15:37:11;79.90;;;36.30;;
57325;SDS011;43161;50.950;18.224;2022-11-25T15:39:37;88.70;;;38.80;;
57325;SDS011;43161;50.950;18.224;2022-11-25T15:44:55;78.10;;;32.80;;
57325;SDS011;43161;50.950;18.224;2022-11-25T15:47:26;86.20;;;39.90;;
57325;SDS011;43161;50.950;18.224;2022-11-25T15:52:25;82.50;;;41.50;;
57325;SDS011;43161;50.950;18.224;2022-11-25T15:54:56;95.10;;;48.30;;
57325;SDS011;43161;50.950;18.224;2022-11-25T15:57:33;91.00;;;40.40;;
57325;SDS011;43161;50.950;18.224;2022-11-25T16:02:34;117.50;;;53.40;;
57325;SDS011;43161;50.950;18.224;2022-11-25T16:18:15;143.00;;;69.10;;
57325;SDS011;43161;50.950;18.224;2022-11-25T16:23:39;155.70;;;75.40;;
57325;SDS011;43161;50.950;18.224;2022-11-25T16:28:35;138.80;;;58.50;;
57325;SDS011;43161;50.950;18.224;2022-11-25T16:31:01;128.00;;;57.00;;
57325;SDS011;43161;50.950;18.224;2022-11-25T16:33:27;136.40;;;63.10;;
57325;SDS011;43161;50.950;18.224;2022-11-25T16:35:53;142.00;;;63.30;;
57325;SDS011;43161;50.950;18.224;2022-11-25T16:38:18;139.10;;;60.80;;
57325;SDS011;43161;50.950;18.224;2022-11-25T16:40:44;119.40;;;54.50;;
57325;SDS011;43161;50.950;18.224;2022-11-25T16:43:18;131.50;;;61.50;;
57325;SDS011;43161;50.950;18.224;2022-11-25T16:45:49;129.50;;;60.00;;
57325;SDS011;43161;50.950;18.224;2022-11-25T16:48:17;116.80;;;51.90;;
57325;SDS011;43161;50.950;18.224;2022-11-25T16:50:46;128.20;;;56.50;;
57325;SDS011;43161;50.950;18.224;2022-11-25T16:53:13;120.20;;;54.30;;
57325;SDS011;43161;50.950;18.224;2022-11-25T16:55:39;120.70;;;53.00;;
57325;SDS011;43161;50.950;18.224;2022-11-25T16:58:14;148.80;;;66.20;;
57325;SDS011;43161;50.950;18.224;2022-11-25T17:00:43;142.40;;;61.50;;
57325;SDS011;43161;50.950;18.224;2022-11-25T17:03:13;147.90;;;62.80;;
57325;SDS011;43161;50.950;18.224;2022-11-25T17:05:39;128.00;;;57.30;;
57325;SDS011;43161;50.950;18.224;2022-11-25T17:08:05;130.10;;;54.20;;
57325;SDS011;43161;50.950;18.224;2022-11-25T17:10:31;251.00;;;78.50;;
57325;SDS011;43161;50.950;18.224;2022-11-25T17:12:56;152.30;;;49.50;;
57325;SDS011;43161;50.950;18.224;2022-11-25T17:15:23;209.90;;;62.60;;
57325;SDS011;43161;50.950;18.224;2022-11-25T17:17:54;154.90;;;58.10;;
57325;SDS011;43161;50.950;18.224;2022-11-25T17:20:21;126.90;;;51.80;;
57325;SDS011;43161;50.950;18.224;2022-11-25T17:22:49;116.80;;;50.00;;
57325;SDS011;43161;50.950;18.224;2022-11-25T17:25:15;131.60;;;54.00;;
57325;SDS011;43161;50.950;18.224;2022-11-25T17:27:41;117.90;;;51.70;;
57325;SDS011;43161;50.950;18.224;2022-11-25T17:32:56;121.50;;;50.10;;